createdAt,value
2023-01-18T00:03:35.841Z,3.20
2023-01-18T00:08:39.281Z,1.88
2023-01-18T00:13:41.259Z,1.77
2023-01-18T00:18:44.117Z,1.60
2023-01-18T00:23:46.098Z,2.22
2023-01-18T00:28:47.844Z,1.70
2023-01-18T00:33:51.451Z,1.63
2023-01-18T01:13:42.062Z,1.83
2023-01-18T01:19:02.490Z,2.60
2023-01-18T01:29:24.568Z,2.70
2023-01-18T01:34:27.139Z,2.67
2023-01-18T01:39:28.860Z,2.65
2023-01-18T01:44:34.529Z,3.00
2023-01-18T01:49:40.104Z,3.58
2023-01-18T01:54:41.711Z,3.50
2023-01-18T01:59:57.270Z,3.60
2023-01-18T02:05:00.743Z,3.47
2023-01-18T02:10:04.366Z,3.45
2023-01-18T02:15:07.007Z,3.55
2023-01-18T02:20:39.041Z,3.60
2023-01-18T02:25:59.653Z,3.15
2023-01-18T02:31:26.937Z,3.55
2023-01-18T02:36:39.223Z,2.90
2023-01-18T02:42:07.146Z,3.17
2023-01-18T02:47:10.384Z,2.70
2023-01-18T02:52:38.861Z,2.80
2023-01-18T02:57:40.660Z,2.10
2023-01-18T03:02:42.530Z,2.75
2023-01-18T03:07:53.379Z,2.40
2023-01-18T03:13:23.157Z,2.45
2023-01-18T03:18:32.500Z,2.10
2023-01-18T03:23:42.465Z,2.10
2023-01-18T03:29:07.437Z,1.70
2023-01-18T03:34:43.264Z,2.15
2023-01-18T03:39:49.040Z,1.50
2023-01-18T03:45:00.232Z,1.55
2023-01-18T03:50:01.956Z,2.10
2023-01-18T03:55:29.455Z,1.48
2023-01-18T04:00:31.570Z,1.55
2023-01-18T04:05:35.034Z,1.50
2023-01-18T04:10:36.707Z,1.45
2023-01-18T04:15:38.338Z,1.20
2023-01-18T04:20:40.053Z,1.50
2023-01-18T04:25:45.784Z,1.88
2023-01-18T04:30:50.017Z,2.30
2023-01-18T04:35:54.413Z,2.10
2023-01-18T04:41:02.542Z,2.20
2023-01-18T04:46:04.537Z,2.25
2023-01-18T04:51:11.759Z,1.70
2023-01-18T04:56:13.580Z,2.08
2023-01-18T05:01:17.543Z,1.70
2023-01-18T05:06:20.058Z,1.80
2023-01-18T05:11:23.326Z,1.90
2023-01-18T05:16:25.353Z,1.70
2023-01-18T05:21:27.297Z,4.20
2023-01-18T05:26:29.239Z,1.80
2023-01-18T05:31:31.165Z,1.80
2023-01-18T05:36:32.921Z,1.67
2023-01-18T05:41:34.659Z,1.45
2023-01-18T05:46:36.433Z,1.40
2023-01-18T05:51:38.146Z,1.65
2023-01-18T05:56:40.516Z,2.40
2023-01-18T06:01:42.755Z,1.60
2023-01-18T06:06:44.464Z,1.60
2023-01-18T06:11:46.243Z,1.20
2023-01-18T06:16:47.992Z,1.40
2023-01-18T06:21:49.686Z,1.00
2023-01-18T06:26:51.350Z,1.08
2023-01-18T06:31:52.975Z,1.55
2023-01-18T06:36:56.032Z,1.60
2023-01-18T06:41:57.705Z,1.52
2023-01-18T06:46:59.420Z,1.95
2023-01-18T06:52:01.123Z,1.50
2023-01-18T06:57:02.811Z,2.50
2023-01-18T07:02:05.051Z,1.70
2023-01-18T07:07:07.959Z,2.08
2023-01-18T07:12:09.616Z,1.63
2023-01-18T07:17:11.355Z,2.50
2023-01-18T07:22:13.532Z,1.55
2023-01-18T07:27:15.238Z,2.92
2023-01-18T07:32:17.225Z,1.75
2023-01-18T07:37:19.250Z,1.75
2023-01-18T07:42:20.952Z,3.03
2023-01-18T07:47:23.603Z,1.75
2023-01-18T07:52:25.665Z,0.98
2023-01-18T07:57:27.398Z,0.95
2023-01-18T08:02:29.789Z,1.05
2023-01-18T08:07:34.248Z,0.88
2023-01-18T08:12:35.872Z,1.08
2023-01-18T08:17:37.820Z,1.33
2023-01-18T08:22:39.531Z,1.38
2023-01-18T08:27:41.223Z,1.42
2023-01-18T08:32:43.079Z,1.83
2023-01-18T08:37:44.667Z,1.60
2023-01-18T08:42:46.899Z,1.85
2023-01-18T08:47:48.571Z,1.90
2023-01-18T08:52:52.511Z,2.22
2023-01-18T08:57:54.966Z,1.48
2023-01-18T09:02:57.675Z,1.40
2023-01-18T09:07:59.733Z,1.95
2023-01-18T09:13:01.682Z,2.53
2023-01-18T09:18:06.256Z,2.80
2023-01-18T09:23:10.260Z,2.45
2023-01-18T09:28:13.187Z,1.00
2023-01-18T09:33:16.970Z,0.95
2023-01-18T09:38:18.643Z,0.82
2023-01-18T09:43:35.319Z,0.85
2023-01-18T09:48:40.780Z,1.00
2023-01-18T09:53:53.154Z,0.90
2023-01-18T09:59:03.856Z,1.52
2023-01-18T10:04:16.553Z,1.02
2023-01-18T10:09:22.638Z,1.23
2023-01-18T10:14:39.351Z,0.70
2023-01-18T10:19:41.396Z,1.45
2023-01-18T10:24:52.691Z,1.25
2023-01-18T10:30:11.241Z,1.23
2023-01-18T10:35:17.904Z,0.98
2023-01-18T10:40:19.779Z,1.20
2023-01-18T10:45:30.045Z,1.17
2023-01-18T10:50:37.389Z,1.85
2023-01-18T10:55:39.071Z,1.75
2023-01-18T11:00:40.934Z,1.17
2023-01-18T11:05:46.076Z,1.35
2023-01-18T11:10:59.600Z,1.65
2023-01-18T11:16:10.119Z,1.13
2023-01-18T16:14:53.058Z,1.85
2023-01-18T16:19:56.962Z,2.20
2023-01-18T16:24:58.648Z,2.42
2023-01-18T16:30:05.590Z,3.03
2023-01-18T16:35:22.295Z,3.08
2023-01-18T16:40:24.283Z,4.53
2023-01-18T16:45:26.379Z,3.95
2023-01-18T16:50:28.412Z,3.95
2023-01-18T16:55:30.141Z,2.92
2023-01-18T17:01:00.173Z,3.20
2023-01-18T17:06:02.629Z,2.43
2023-01-18T17:11:04.464Z,3.55
2023-01-18T17:16:07.097Z,2.65
2023-01-18T17:21:10.275Z,3.20
2023-01-18T17:26:15.245Z,2.83
2023-01-18T17:31:16.938Z,3.72
2023-01-18T17:36:18.703Z,2.38
2023-01-18T17:41:27.738Z,3.55
2023-01-18T17:46:34.058Z,3.40
2023-01-18T17:51:36.608Z,2.92
2023-01-18T17:56:38.219Z,2.92
2023-01-18T18:01:39.967Z,2.90
2023-01-18T18:06:49.728Z,3.17
2023-01-18T18:11:55.897Z,3.63
2023-01-18T18:16:57.701Z,2.65
2023-01-18T18:22:00.535Z,2.78
2023-01-18T18:27:03.068Z,2.88
2023-01-18T18:32:06.413Z,2.67
2023-01-18T18:37:08.253Z,3.25
2023-01-18T18:42:09.919Z,2.13
2023-01-18T18:47:13.474Z,2.33
2023-01-18T18:52:15.226Z,1.70
2023-01-18T18:57:16.966Z,1.58
2023-01-18T19:02:18.882Z,3.63
2023-01-18T19:07:20.654Z,3.10
2023-01-18T19:12:22.409Z,1.83
2023-01-18T19:17:30.420Z,3.13
2023-01-18T19:22:32.933Z,3.03
2023-01-18T19:27:34.606Z,2.95
2023-01-18T19:32:36.638Z,3.08
2023-01-18T19:37:38.733Z,2.20
2023-01-18T19:42:40.847Z,1.70
2023-01-18T19:47:42.694Z,0.60
2023-01-18T19:52:46.154Z,1.70
2023-01-18T19:57:49.609Z,2.08
2023-01-18T20:02:51.618Z,2.13
2023-01-18T20:07:53.945Z,1.50
2023-01-18T20:12:56.227Z,0.60
2023-01-18T20:17:58.226Z,1.00
2023-01-18T20:23:03.049Z,0.75
2023-01-18T20:28:05.409Z,1.55
2023-01-18T20:33:07.313Z,0.85
2023-01-18T20:38:09.701Z,1.27
2023-01-18T20:43:11.395Z,1.75
2023-01-18T20:48:14.049Z,1.08
2023-01-18T20:53:15.684Z,1.35
2023-01-18T20:58:17.355Z,1.45
2023-01-18T21:03:19.464Z,2.10
2023-01-18T21:08:21.223Z,1.05
2023-01-18T21:13:24.777Z,1.50
2023-01-18T21:18:27.061Z,2.35
2023-01-18T21:23:29.788Z,1.88
2023-01-18T21:28:31.465Z,2.15
2023-01-18T21:33:33.776Z,1.83
2023-01-18T21:38:36.112Z,3.33
2023-01-18T21:43:56.432Z,2.22
2023-01-18T21:49:02.240Z,1.50
2023-01-18T21:54:14.742Z,2.13
2023-01-18T21:59:16.408Z,1.48
2023-01-18T22:04:37.600Z,1.38
2023-01-18T22:09:39.312Z,0.90
2023-01-18T22:14:41.292Z,1.20
2023-01-18T22:19:43.942Z,2.00
2023-01-18T22:24:45.593Z,1.17
2023-01-18T22:29:47.277Z,1.15
2023-01-18T22:34:48.912Z,1.15
2023-01-18T22:39:50.568Z,1.75
2023-01-18T22:44:52.299Z,1.60
2023-01-18T22:49:54.032Z,1.10
2023-01-18T22:54:55.732Z,0.95
2023-01-18T22:59:57.410Z,0.88
2023-01-18T23:04:59.114Z,1.13
2023-01-18T23:10:00.765Z,1.13
2023-01-18T23:15:20.817Z,1.33
2023-01-18T23:20:23.611Z,1.40
2023-01-18T23:25:25.259Z,1.20
2023-01-18T23:30:27.061Z,1.10
2023-01-18T23:35:28.768Z,1.77
2023-01-18T23:40:49.177Z,1.08
2023-01-18T23:51:29.760Z,0.93
2023-01-18T23:56:31.923Z,1.02
